sensor_id;sensor_type;location;lat;lon;timestamp;P1;durP1;ratioP1;P2;durP2;ratioP2
50651;SDS011;61429;52.086;5.240;2022-09-30T00:00:25;8.5;;;7.6;;
50651;SDS011;61429;52.086;5.240;2022-09-30T00:02:01;7.6;;;6.8;;
50651;SDS011;61429;52.086;5.240;2022-09-30T00:03:37;9.5;;;6.6;;
50651;SDS011;61429;52.086;5.240;2022-09-30T00:06:51;8.31;;;6.6;;
50651;SDS011;61429;52.086;5.240;2022-09-30T00:08:29;7.5;;;6.4;;
50651;SDS011;61429;52.086;5.240;2022-09-30T00:10:06;7.7;;;6.1;;
50651;SDS011;61429;52.086;5.240;2022-09-30T00:13:21;7.2;;;5.7;;
50651;SDS011;61429;52.086;5.240;2022-09-30T00:14:58;6.7;;;5.3;;
50651;SDS011;61429;52.086;5.240;2022-09-30T00:16:34;6.3;;;5.7;;
50651;SDS011;61429;52.086;5.240;2022-09-30T00:18:12;6.3;;;5.4;;
50651;SDS011;61429;52.086;5.240;2022-09-30T00:21:24;7.6;;;5.4;;
50651;SDS011;61429;52.086;5.240;2022-09-30T00:23:02;6.9;;;5.9;;
50651;SDS011;61429;52.086;5.240;2022-09-30T00:24:38;6.8;;;5.4;;
50651;SDS011;61429;52.086;5.240;2022-09-30T00:27:54;8.6;;;5.5;;
50651;SDS011;61429;52.086;5.240;2022-09-30T00:29:30;7.9;;;5.3;;
50651;SDS011;61429;52.086;5.240;2022-09-30T00:31:07;5.6;;;5.0;;
50651;SDS011;61429;52.086;5.240;2022-09-30T00:32:47;6.1;;;5.0;;
50651;SDS011;61429;52.086;5.240;2022-09-30T00:36:00;5.8;;;5.2;;
50651;SDS011;61429;52.086;5.240;2022-09-30T00:37:36;6.4;;;4.91;;
50651;SDS011;61429;52.086;5.240;2022-09-30T00:39:15;5.7;;;4.8;;
50651;SDS011;61429;52.086;5.240;2022-09-30T00:42:30;7.0;;;4.7;;
50651;SDS011;61429;52.086;5.240;2022-09-30T00:45:11;6.6;;;4.91;;
50651;SDS011;61429;52.086;5.240;2022-09-30T00:46:48;6.2;;;5.0;;
50651;SDS011;61429;52.086;5.240;2022-09-30T00:48:26;7.0;;;5.0;;
50651;SDS011;61429;52.086;5.240;2022-09-30T00:50:15;7.4;;;5.0;;
50651;SDS011;61429;52.086;5.240;2022-09-30T00:52:12;7.4;;;5.11;;
50651;SDS011;61429;52.086;5.240;2022-09-30T00:53:49;5.6;;;4.5;;
50651;SDS011;61429;52.086;5.240;2022-09-30T00:57:21;7.4;;;5.2;;
50651;SDS011;61429;52.086;5.240;2022-09-30T00:58:59;6.5;;;5.2;;
50651;SDS011;61429;52.086;5.240;2022-09-30T01:00:40;6.6;;;5.5;;
50651;SDS011;61429;52.086;5.240;2022-09-30T01:02:18;8.31;;;5.7;;
50651;SDS011;61429;52.086;5.240;2022-09-30T01:05:36;8.71;;;5.7;;
50651;SDS011;61429;52.086;5.240;2022-09-30T01:07:12;8.0;;;5.2;;
50651;SDS011;61429;52.086;5.240;2022-09-30T01:08:49;10.6;;;5.8;;
50651;SDS011;61429;52.086;5.240;2022-09-30T01:10:26;7.3;;;5.8;;
50651;SDS011;61429;52.086;5.240;2022-09-30T01:13:42;6.7;;;5.11;;
50651;SDS011;61429;52.086;5.240;2022-09-30T01:15:29;7.1;;;5.2;;
50651;SDS011;61429;52.086;5.240;2022-09-30T01:17:24;8.81;;;4.91;;
50651;SDS011;61429;52.086;5.240;2022-09-30T01:19:16;7.1;;;5.4;;
50651;SDS011;61429;52.086;5.240;2022-09-30T01:21:53;6.3;;;5.6;;
50651;SDS011;61429;52.086;5.240;2022-09-30T01:24:46;8.0;;;5.7;;
50651;SDS011;61429;52.086;5.240;2022-09-30T01:28:12;7.5;;;5.9;;
50651;SDS011;61429;52.086;5.240;2022-09-30T01:30:08;8.0;;;5.4;;
50651;SDS011;61429;52.086;5.240;2022-09-30T01:31:52;7.4;;;5.7;;
50651;SDS011;61429;52.086;5.240;2022-09-30T01:33:41;7.2;;;5.5;;
50651;SDS011;61429;52.086;5.240;2022-09-30T01:37:16;7.6;;;5.8;;
50651;SDS011;61429;52.086;5.240;2022-09-30T01:39:04;7.0;;;5.7;;
50651;SDS011;61429;52.086;5.240;2022-09-30T01:40:52;9.0;;;5.8;;
50651;SDS011;61429;52.086;5.240;2022-09-30T01:42:44;6.3;;;5.7;;
50651;SDS011;61429;52.086;5.240;2022-09-30T01:44:32;7.6;;;5.9;;
50651;SDS011;61429;52.086;5.240;2022-09-30T01:46:19;7.3;;;5.5;;
50651;SDS011;61429;52.086;5.240;2022-09-30T01:48:07;6.7;;;5.5;;
50651;SDS011;61429;52.086;5.240;2022-09-30T01:51:38;6.9;;;5.4;;
50651;SDS011;61429;52.086;5.240;2022-09-30T01:53:22;6.3;;;5.5;;
50651;SDS011;61429;52.086;5.240;2022-09-30T01:55:06;6.6;;;5.2;;
50651;SDS011;61429;52.086;5.240;2022-09-30T01:56:50;5.8;;;5.11;;
50651;SDS011;61429;52.086;5.240;2022-09-30T01:58:35;5.9;;;5.11;;
50651;SDS011;61429;52.086;5.240;2022-09-30T02:01:54;6.0;;;5.2;;
50651;SDS011;61429;52.086;5.240;2022-09-30T02:03:39;6.6;;;5.3;;
50651;SDS011;61429;52.086;5.240;2022-09-30T02:05:22;6.1;;;4.91;;
50651;SDS011;61429;52.086;5.240;2022-09-30T02:07:04;6.3;;;4.91;;
50651;SDS011;61429;52.086;5.240;2022-09-30T02:10:30;5.8;;;4.8;;
50651;SDS011;61429;52.086;5.240;2022-09-30T02:12:11;5.3;;;4.8;;
50651;SDS011;61429;52.086;5.240;2022-09-30T02:13:55;5.3;;;4.8;;
50651;SDS011;61429;52.086;5.240;2022-09-30T02:15:38;5.7;;;4.8;;
50651;SDS011;61429;52.086;5.240;2022-09-30T02:17:21;5.7;;;4.91;;
50651;SDS011;61429;52.086;5.240;2022-09-30T02:20:48;6.1;;;4.7;;
50651;SDS011;61429;52.086;5.240;2022-09-30T02:22:32;5.2;;;4.7;;
50651;SDS011;61429;52.086;5.240;2022-09-30T02:24:14;6.7;;;5.2;;
50651;SDS011;61429;52.086;5.240;2022-09-30T02:25:54;6.1;;;5.0;;
50651;SDS011;61429;52.086;5.240;2022-09-30T02:29:24;5.4;;;4.41;;
50651;SDS011;61429;52.086;5.240;2022-09-30T02:31:05;5.2;;;4.3;;
50651;SDS011;61429;52.086;5.240;2022-09-30T02:32:46;5.2;;;4.5;;
50651;SDS011;61429;52.086;5.240;2022-09-30T02:34:26;5.6;;;4.5;;
50651;SDS011;61429;52.086;5.240;2022-09-30T02:37:53;5.9;;;4.8;;
50651;SDS011;61429;52.086;5.240;2022-09-30T02:39:36;5.11;;;4.61;;
50651;SDS011;61429;52.086;5.240;2022-09-30T02:41:22;4.91;;;4.1;;
50651;SDS011;61429;52.086;5.240;2022-09-30T02:43:02;4.91;;;4.5;;
50651;SDS011;61429;52.086;5.240;2022-09-30T02:44:40;6.0;;;4.41;;
50651;SDS011;61429;52.086;5.240;2022-09-30T02:48:03;4.91;;;4.41;;
50651;SDS011;61429;52.086;5.240;2022-09-30T02:49:53;4.91;;;4.41;;
50651;SDS011;61429;52.086;5.240;2022-09-30T02:51:38;6.8;;;5.3;;
50651;SDS011;61429;52.086;5.240;2022-09-30T02:53:26;5.5;;;5.0;;
50651;SDS011;61429;52.086;5.240;2022-09-30T02:55:14;5.5;;;5.0;;
50651;SDS011;61429;52.086;5.240;2022-09-30T02:58:38;5.8;;;5.2;;
50651;SDS011;61429;52.086;5.240;2022-09-30T03:00:17;5.9;;;5.11;;
50651;SDS011;61429;52.086;5.240;2022-09-30T03:01:55;5.2;;;4.7;;
50651;SDS011;61429;52.086;5.240;2022-09-30T03:03:32;5.6;;;5.0;;
50651;SDS011;61429;52.086;5.240;2022-09-30T03:06:51;5.9;;;5.3;;
50651;SDS011;61429;52.086;5.240;2022-09-30T03:08:30;6.2;;;5.0;;
50651;SDS011;61429;52.086;5.240;2022-09-30T03:10:10;5.2;;;4.7;;
50651;SDS011;61429;52.086;5.240;2022-09-30T03:11:48;8.2;;;4.7;;
50651;SDS011;61429;52.086;5.240;2022-09-30T03:15:55;5.4;;;4.8;;
50651;SDS011;61429;52.086;5.240;2022-09-30T03:17:50;5.9;;;4.7;;
50651;SDS011;61429;52.086;5.240;2022-09-30T03:19:50;4.8;;;4.3;;
50651;SDS011;61429;52.086;5.240;2022-09-30T03:21:45;5.5;;;4.91;;
50651;SDS011;61429;52.086;5.240;2022-09-30T03:23:43;6.4;;;5.2;;
50651;SDS011;61429;52.086;5.240;2022-09-30T03:25:37;5.8;;;4.91;;
50651;SDS011;61429;52.086;5.240;2022-09-30T03:27:24;6.9;;;4.8;;
50651;SDS011;61429;52.086;5.240;2022-09-30T03:29:12;5.11;;;4.61;;
50651;SDS011;61429;52.086;5.240;2022-09-30T03:31:02;5.9;;;4.7;;
50651;SDS011;61429;52.086;5.240;2022-09-30T03:32:48;5.8;;;4.91;;
50651;SDS011;61429;52.086;5.240;2022-09-30T03:36:33;6.9;;;4.91;;
50651;SDS011;61429;52.086;5.240;2022-09-30T03:38:19;5.2;;;4.7;;
50651;SDS011;61429;52.086;5.240;2022-09-30T03:40:11;5.11;;;4.61;;
50651;SDS011;61429;52.086;5.240;2022-09-30T03:41:53;6.2;;;4.41;;
50651;SDS011;61429;52.086;5.240;2022-09-30T03:43:39;5.11;;;4.61;;
50651;SDS011;61429;52.086;5.240;2022-09-30T03:45:25;5.9;;;4.7;;
50651;SDS011;61429;52.086;5.240;2022-09-30T03:48:46;6.7;;;4.91;;
50651;SDS011;61429;52.086;5.240;2022-09-30T03:50:25;5.4;;;4.91;;
50651;SDS011;61429;52.086;5.240;2022-09-30T03:52:04;5.4;;;4.5;;
50651;SDS011;61429;52.086;5.240;2022-09-30T03:53:42;4.91;;;4.5;;
50651;SDS011;61429;52.086;5.240;2022-09-30T03:57:02;5.9;;;4.91;;
50651;SDS011;61429;52.086;5.240;2022-09-30T03:58:40;6.6;;;5.0;;
50651;SDS011;61429;52.086;5.240;2022-09-30T04:00:18;5.5;;;4.3;;
50651;SDS011;61429;52.086;5.240;2022-09-30T04:01:56;5.4;;;4.61;;
50651;SDS011;61429;52.086;5.240;2022-09-30T04:05:10;5.9;;;4.8;;
50651;SDS011;61429;52.086;5.240;2022-09-30T04:06:48;6.0;;;4.8;;
50651;SDS011;61429;52.086;5.240;2022-09-30T04:08:24;5.0;;;4.5;;
50651;SDS011;61429;52.086;5.240;2022-09-30T04:11:36;5.4;;;4.41;;
50651;SDS011;61429;52.086;5.240;2022-09-30T04:13:12;5.6;;;4.7;;
50651;SDS011;61429;52.086;5.240;2022-09-30T04:14:48;4.41;;;4.0;;
50651;SDS011;61429;52.086;5.240;2022-09-30T04:18:01;4.7;;;4.2;;
50651;SDS011;61429;52.086;5.240;2022-09-30T04:19:39;5.6;;;4.5;;
50651;SDS011;61429;52.086;5.240;2022-09-30T04:21:16;4.61;;;4.1;;
50651;SDS011;61429;52.086;5.240;2022-09-30T04:22:52;5.0;;;4.3;;
50651;SDS011;61429;52.086;5.240;2022-09-30T04:26:09;5.0;;;4.61;;
50651;SDS011;61429;52.086;5.240;2022-09-30T04:27:48;5.5;;;4.5;;
50651;SDS011;61429;52.086;5.240;2022-09-30T04:29:24;5.4;;;4.61;;
50651;SDS011;61429;52.086;5.240;2022-09-30T04:32:41;5.4;;;4.61;;
50651;SDS011;61429;52.086;5.240;2022-09-30T04:34:20;5.0;;;4.61;;
50651;SDS011;61429;52.086;5.240;2022-09-30T04:35:57;5.0;;;4.5;;
50651;SDS011;61429;52.086;5.240;2022-09-30T04:37:35;5.9;;;4.91;;
50651;SDS011;61429;52.086;5.240;2022-09-30T04:40:48;5.0;;;4.61;;
50651;SDS011;61429;52.086;5.240;2022-09-30T04:42:26;5.3;;;4.8;;
50651;SDS011;61429;52.086;5.240;2022-09-30T04:44:05;5.8;;;4.8;;
50651;SDS011;61429;52.086;5.240;2022-09-30T04:47:20;5.5;;;5.0;;
50651;SDS011;61429;52.086;5.240;2022-09-30T04:48:56;9.21;;;4.61;;
50651;SDS011;61429;52.086;5.240;2022-09-30T04:50:33;4.7;;;4.2;;
50651;SDS011;61429;52.086;5.240;2022-09-30T04:52:09;5.2;;;4.7;;
50651;SDS011;61429;52.086;5.240;2022-09-30T04:55:24;5.0;;;4.5;;
50651;SDS011;61429;52.086;5.240;2022-09-30T04:57:00;4.91;;;4.41;;
50651;SDS011;61429;52.086;5.240;2022-09-30T04:58:36;6.3;;;4.7;;
50651;SDS011;61429;52.086;5.240;2022-09-30T05:01:49;4.8;;;4.41;;
50651;SDS011;61429;52.086;5.240;2022-09-30T05:03:25;5.3;;;4.8;;
50651;SDS011;61429;52.086;5.240;2022-09-30T05:05:02;5.6;;;5.11;;
50651;SDS011;61429;52.086;5.240;2022-09-30T05:08:16;5.9;;;5.0;;
50651;SDS011;61429;52.086;5.240;2022-09-30T05:09:52;6.0;;;5.0;;
50651;SDS011;61429;52.086;5.240;2022-09-30T05:11:28;8.0;;;5.3;;
50651;SDS011;61429;52.086;5.240;2022-09-30T05:13:04;6.7;;;5.5;;
50651;SDS011;61429;52.086;5.240;2022-09-30T05:16:17;7.3;;;5.6;;
50651;SDS011;61429;52.086;5.240;2022-09-30T05:17:54;5.9;;;5.2;;
50651;SDS011;61429;52.086;5.240;2022-09-30T05:19:30;7.3;;;5.3;;
50651;SDS011;61429;52.086;5.240;2022-09-30T05:22:43;5.8;;;5.2;;
50651;SDS011;61429;52.086;5.240;2022-09-30T05:24:20;5.9;;;5.2;;
50651;SDS011;61429;52.086;5.240;2022-09-30T05:25:56;5.4;;;4.91;;
50651;SDS011;61429;52.086;5.240;2022-09-30T05:29:10;5.7;;;5.11;;
50651;SDS011;61429;52.086;5.240;2022-09-30T05:30:46;5.9;;;5.3;;
50651;SDS011;61429;52.086;5.240;2022-09-30T05:32:24;6.0;;;5.4;;
50651;SDS011;61429;52.086;5.240;2022-09-30T05:34:00;5.6;;;5.11;;
50651;SDS011;61429;52.086;5.240;2022-09-30T05:37:14;6.4;;;4.91;;
50651;SDS011;61429;52.086;5.240;2022-09-30T05:38:52;5.7;;;5.11;;
50651;SDS011;61429;52.086;5.240;2022-09-30T05:40:29;5.5;;;5.0;;
50651;SDS011;61429;52.086;5.240;2022-09-30T05:43:44;6.3;;;5.6;;
50651;SDS011;61429;52.086;5.240;2022-09-30T05:45:20;5.8;;;5.11;;
50651;SDS011;61429;52.086;5.240;2022-09-30T05:46:58;6.1;;;5.2;;
50651;SDS011;61429;52.086;5.240;2022-09-30T05:50:11;8.0;;;6.3;;
50651;SDS011;61429;52.086;5.240;2022-09-30T05:51:47;6.6;;;5.9;;
50651;SDS011;61429;52.086;5.240;2022-09-30T05:53:23;6.2;;;5.6;;
50651;SDS011;61429;52.086;5.240;2022-09-30T05:55:00;8.31;;;6.2;;
50651;SDS011;61429;52.086;5.240;2022-09-30T05:58:13;6.9;;;6.2;;
50651;SDS011;61429;52.086;5.240;2022-09-30T05:59:50;7.3;;;6.1;;
50651;SDS011;61429;52.086;5.240;2022-09-30T06:01:27;12.2;;;8.31;;
50651;SDS011;61429;52.086;5.240;2022-09-30T06:04:39;9.71;;;7.5;;
50651;SDS011;61429;52.086;5.240;2022-09-30T06:06:15;9.81;;;7.4;;
50651;SDS011;61429;52.086;5.240;2022-09-30T06:07:52;11.3;;;7.9;;
50651;SDS011;61429;52.086;5.240;2022-09-30T06:11:08;10.0;;;8.1;;
50651;SDS011;61429;52.086;5.240;2022-09-30T06:12:45;12.5;;;8.0;;
50651;SDS011;61429;52.086;5.240;2022-09-30T06:14:22;10.7;;;8.4;;
50651;SDS011;61429;52.086;5.240;2022-09-30T06:15:59;11.4;;;8.31;;
50651;SDS011;61429;52.086;5.240;2022-09-30T06:19:12;9.9;;;8.6;;
50651;SDS011;61429;52.086;5.240;2022-09-30T06:26:14;10.3;;;8.31;;
50651;SDS011;61429;52.086;5.240;2022-09-30T06:27:51;9.6;;;8.0;;
50651;SDS011;61429;52.086;5.240;2022-09-30T06:29:27;12.0;;;8.1;;
50651;SDS011;61429;52.086;5.240;2022-09-30T06:31:04;10.8;;;8.71;;
50651;SDS011;61429;52.086;5.240;2022-09-30T06:32:41;10.1;;;8.2;;
50651;SDS011;61429;52.086;5.240;2022-09-30T06:35:55;11.1;;;9.21;;
50651;SDS011;61429;52.086;5.240;2022-09-30T06:37:31;10.0;;;9.0;;
50651;SDS011;61429;52.086;5.240;2022-09-30T06:39:07;10.4;;;8.9;;
50651;SDS011;61429;52.086;5.240;2022-09-30T06:42:23;10.0;;;8.5;;
50651;SDS011;61429;52.086;5.240;2022-09-30T06:44:00;9.5;;;8.2;;
50651;SDS011;61429;52.086;5.240;2022-09-30T06:45:37;9.71;;;8.71;;
50651;SDS011;61429;52.086;5.240;2022-09-30T06:47:13;10.1;;;8.81;;
50651;SDS011;61429;52.086;5.240;2022-09-30T06:50:30;9.9;;;8.9;;
50651;SDS011;61429;52.086;5.240;2022-09-30T06:52:08;8.9;;;8.0;;
50651;SDS011;61429;52.086;5.240;2022-09-30T06:53:44;9.6;;;8.6;;
50651;SDS011;61429;52.086;5.240;2022-09-30T06:57:04;10.7;;;9.1;;
50651;SDS011;61429;52.086;5.240;2022-09-30T06:58:41;10.4;;;8.4;;
50651;SDS011;61429;52.086;5.240;2022-09-30T07:00:18;9.71;;;8.5;;
50651;SDS011;61429;52.086;5.240;2022-09-30T07:01:54;10.3;;;9.31;;
50651;SDS011;61429;52.086;5.240;2022-09-30T07:05:10;10.0;;;8.9;;
50651;SDS011;61429;52.086;5.240;2022-09-30T07:06:46;11.2;;;10.0;;
50651;SDS011;61429;52.086;5.240;2022-09-30T07:08:25;10.6;;;9.5;;
50651;SDS011;61429;52.086;5.240;2022-09-30T07:11:42;11.4;;;10.3;;
50651;SDS011;61429;52.086;5.240;2022-09-30T07:13:19;11.5;;;10.3;;
50651;SDS011;61429;52.086;5.240;2022-09-30T07:14:55;11.2;;;10.1;;
50651;SDS011;61429;52.086;5.240;2022-09-30T07:16:33;12.1;;;10.8;;
50651;SDS011;61429;52.086;5.240;2022-09-30T07:19:45;11.8;;;10.7;;
50651;SDS011;61429;52.086;5.240;2022-09-30T07:21:21;12.3;;;11.0;;
50651;SDS011;61429;52.086;5.240;2022-09-30T07:22:59;13.4;;;12.1;;
50651;SDS011;61429;52.086;5.240;2022-09-30T07:26:11;12.5;;;11.3;;
50651;SDS011;61429;52.086;5.240;2022-09-30T07:27:48;15.4;;;13.8;;
50651;SDS011;61429;52.086;5.240;2022-09-30T07:29:24;15.3;;;13.9;;
50651;SDS011;61429;52.086;5.240;2022-09-30T07:32:46;17.2;;;15.4;;
50651;SDS011;61429;52.086;5.240;2022-09-30T07:34:23;17.5;;;15.7;;
50651;SDS011;61429;52.086;5.240;2022-09-30T07:35:59;16.4;;;14.8;;
50651;SDS011;61429;52.086;5.240;2022-09-30T07:37:36;17.91;;;16.2;;
50651;SDS011;61429;52.086;5.240;2022-09-30T07:40:52;18.41;;;16.61;;
50651;SDS011;61429;52.086;5.240;2022-09-30T07:42:31;18.61;;;16.61;;
50651;SDS011;61429;52.086;5.240;2022-09-30T07:44:13;17.61;;;15.9;;
50651;SDS011;61429;52.086;5.240;2022-09-30T07:45:50;18.91;;;16.9;;
50651;SDS011;61429;52.086;5.240;2022-09-30T07:49:05;17.41;;;15.8;;
50651;SDS011;61429;52.086;5.240;2022-09-30T07:50:48;17.5;;;15.9;;
50651;SDS011;61429;52.086;5.240;2022-09-30T07:52:28;18.0;;;16.3;;
50651;SDS011;61429;52.086;5.240;2022-09-30T07:55:43;17.0;;;15.3;;
50651;SDS011;61429;52.086;5.240;2022-09-30T07:57:20;18.5;;;16.7;;
50651;SDS011;61429;52.086;5.240;2022-09-30T07:58:59;18.11;;;16.3;;
50651;SDS011;61429;52.086;5.240;2022-09-30T08:00:38;18.3;;;16.4;;
50651;SDS011;61429;52.086;5.240;2022-09-30T08:03:53;18.7;;;16.7;;
50651;SDS011;61429;52.086;5.240;2022-09-30T08:05:31;16.2;;;14.6;;
50651;SDS011;61429;52.086;5.240;2022-09-30T08:07:07;16.2;;;14.6;;
50651;SDS011;61429;52.086;5.240;2022-09-30T08:10:21;17.3;;;15.7;;
50651;SDS011;61429;52.086;5.240;2022-09-30T08:11:58;18.11;;;16.3;;
50651;SDS011;61429;52.086;5.240;2022-09-30T08:13:36;18.2;;;16.3;;
50651;SDS011;61429;52.086;5.240;2022-09-30T08:15:13;18.5;;;16.61;;
50651;SDS011;61429;52.086;5.240;2022-09-30T08:18:26;17.3;;;15.7;;
50651;SDS011;61429;52.086;5.240;2022-09-30T08:20:03;17.2;;;15.5;;
50651;SDS011;61429;52.086;5.240;2022-09-30T08:21:40;18.41;;;16.61;;
50651;SDS011;61429;52.086;5.240;2022-09-30T08:24:53;17.11;;;15.4;;
50651;SDS011;61429;52.086;5.240;2022-09-30T08:26:30;16.8;;;15.2;;
50651;SDS011;61429;52.086;5.240;2022-09-30T08:28:06;17.2;;;15.5;;
50651;SDS011;61429;52.086;5.240;2022-09-30T08:29:42;16.61;;;15.0;;
50651;SDS011;61429;52.086;5.240;2022-09-30T08:32:57;17.61;;;15.8;;
50651;SDS011;61429;52.086;5.240;2022-09-30T08:34:34;17.5;;;15.8;;
50651;SDS011;61429;52.086;5.240;2022-09-30T08:36:11;16.7;;;15.1;;
50651;SDS011;61429;52.086;5.240;2022-09-30T08:39:26;16.61;;;15.0;;
50651;SDS011;61429;52.086;5.240;2022-09-30T08:41:08;16.9;;;15.2;;
50651;SDS011;61429;52.086;5.240;2022-09-30T08:43:02;17.5;;;15.8;;
50651;SDS011;61429;52.086;5.240;2022-09-30T08:44:59;17.2;;;15.4;;
50651;SDS011;61429;52.086;5.240;2022-09-30T08:46:43;16.3;;;14.4;;
50651;SDS011;61429;52.086;5.240;2022-09-30T08:50:18;16.3;;;14.7;;
50651;SDS011;61429;52.086;5.240;2022-09-30T08:52:07;17.8;;;16.11;;
50651;SDS011;61429;52.086;5.240;2022-09-30T08:53:50;16.9;;;15.3;;
50651;SDS011;61429;52.086;5.240;2022-09-30T08:55:39;15.9;;;14.3;;
50651;SDS011;61429;52.086;5.240;2022-09-30T08:57:17;15.7;;;14.2;;
50651;SDS011;61429;52.086;5.240;2022-09-30T09:00:39;16.2;;;14.7;;
50651;SDS011;61429;52.086;5.240;2022-09-30T09:02:19;15.2;;;13.7;;
50651;SDS011;61429;52.086;5.240;2022-09-30T09:03:59;16.0;;;14.4;;
50651;SDS011;61429;52.086;5.240;2022-09-30T09:05:40;16.0;;;14.4;;
50651;SDS011;61429;52.086;5.240;2022-09-30T09:07:30;16.4;;;14.6;;
50651;SDS011;61429;52.086;5.240;2022-09-30T09:11:17;15.9;;;14.3;;
50651;SDS011;61429;52.086;5.240;2022-09-30T09:13:18;15.1;;;13.6;;
50651;SDS011;61429;52.086;5.240;2022-09-30T09:15:23;14.2;;;12.8;;
50651;SDS011;61429;52.086;5.240;2022-09-30T09:17:29;13.2;;;12.0;;
50651;SDS011;61429;52.086;5.240;2022-09-30T09:19:21;12.9;;;11.7;;
50651;SDS011;61429;52.086;5.240;2022-09-30T09:21:02;12.8;;;11.7;;
50651;SDS011;61429;52.086;5.240;2022-09-30T09:22:52;11.6;;;10.5;;
50651;SDS011;61429;52.086;5.240;2022-09-30T09:24:32;12.2;;;11.0;;
50651;SDS011;61429;52.086;5.240;2022-09-30T09:26:15;11.9;;;10.8;;
50651;SDS011;61429;52.086;5.240;2022-09-30T09:29:36;11.4;;;10.3;;
50651;SDS011;61429;52.086;5.240;2022-09-30T09:31:18;10.8;;;9.71;;
50651;SDS011;61429;52.086;5.240;2022-09-30T09:32:57;11.0;;;9.9;;
50651;SDS011;61429;52.086;5.240;2022-09-30T09:34:37;10.5;;;9.6;;
50651;SDS011;61429;52.086;5.240;2022-09-30T09:38:30;10.21;;;9.21;;
50651;SDS011;61429;52.086;5.240;2022-09-30T09:40:18;10.6;;;9.5;;
50651;SDS011;61429;52.086;5.240;2022-09-30T09:42:11;10.0;;;9.0;;
50651;SDS011;61429;52.086;5.240;2022-09-30T09:44:08;10.8;;;9.71;;
50651;SDS011;61429;52.086;5.240;2022-09-30T09:45:54;9.6;;;8.71;;
50651;SDS011;61429;52.086;5.240;2022-09-30T09:47:38;9.1;;;8.31;;
50651;SDS011;61429;52.086;5.240;2022-09-30T09:49:32;8.71;;;7.8;;
50651;SDS011;61429;52.086;5.240;2022-09-30T09:53:01;8.71;;;7.9;;
50651;SDS011;61429;52.086;5.240;2022-09-30T09:54:55;7.4;;;6.7;;
50651;SDS011;61429;52.086;5.240;2022-09-30T09:56:32;6.6;;;6.1;;
50651;SDS011;61429;52.086;5.240;2022-09-30T09:58:10;5.6;;;5.11;;
50651;SDS011;61429;52.086;5.240;2022-09-30T09:59:56;5.2;;;4.8;;
50651;SDS011;61429;52.086;5.240;2022-09-30T10:03:18;5.6;;;5.11;;
50651;SDS011;61429;52.086;5.240;2022-09-30T10:05:00;5.5;;;5.0;;
50651;SDS011;61429;52.086;5.240;2022-09-30T10:06:42;5.8;;;5.11;;
50651;SDS011;61429;52.086;5.240;2022-09-30T10:08:23;5.3;;;4.8;;
50651;SDS011;61429;52.086;5.240;2022-09-30T10:12:16;6.0;;;5.3;;
50651;SDS011;61429;52.086;5.240;2022-09-30T10:14:00;6.0;;;5.5;;
50651;SDS011;61429;52.086;5.240;2022-09-30T10:15:40;5.5;;;5.11;;
50651;SDS011;61429;52.086;5.240;2022-09-30T10:17:18;6.1;;;5.5;;
50651;SDS011;61429;52.086;5.240;2022-09-30T10:18:57;5.6;;;5.11;;
50651;SDS011;61429;52.086;5.240;2022-09-30T10:20:35;5.9;;;5.4;;
50651;SDS011;61429;52.086;5.240;2022-09-30T10:23:56;6.8;;;5.6;;
50651;SDS011;61429;52.086;5.240;2022-09-30T10:25:32;6.1;;;5.3;;
50651;SDS011;61429;52.086;5.240;2022-09-30T10:27:15;5.6;;;5.0;;
50651;SDS011;61429;52.086;5.240;2022-09-30T10:29:20;6.3;;;5.11;;
50651;SDS011;61429;52.086;5.240;2022-09-30T10:31:02;5.0;;;4.61;;
50651;SDS011;61429;52.086;5.240;2022-09-30T10:34:19;4.5;;;4.1;;
50651;SDS011;61429;52.086;5.240;2022-09-30T10:36:03;4.8;;;4.3;;
50651;SDS011;61429;52.086;5.240;2022-09-30T10:37:49;6.1;;;4.7;;
50651;SDS011;61429;52.086;5.240;2022-09-30T10:39:28;5.2;;;4.7;;
50651;SDS011;61429;52.086;5.240;2022-09-30T10:42:45;4.5;;;4.1;;
50651;SDS011;61429;52.086;5.240;2022-09-30T10:44:23;5.11;;;4.41;;
50651;SDS011;61429;52.086;5.240;2022-09-30T10:46:02;5.11;;;4.61;;
50651;SDS011;61429;52.086;5.240;2022-09-30T10:49:23;5.2;;;3.5;;
50651;SDS011;61429;52.086;5.240;2022-09-30T10:51:03;4.7;;;4.2;;
50651;SDS011;61429;52.086;5.240;2022-09-30T10:52:55;5.0;;;4.3;;
50651;SDS011;61429;52.086;5.240;2022-09-30T10:54:45;6.2;;;3.9;;
50651;SDS011;61429;52.086;5.240;2022-09-30T10:56:33;5.6;;;4.2;;
50651;SDS011;61429;52.086;5.240;2022-09-30T10:58:22;5.5;;;3.7;;
50651;SDS011;61429;52.086;5.240;2022-09-30T11:01:51;4.2;;;3.7;;
50651;SDS011;61429;52.086;5.240;2022-09-30T11:03:33;5.4;;;3.5;;
50651;SDS011;61429;52.086;5.240;2022-09-30T11:05:20;4.1;;;3.3;;
50651;SDS011;61429;52.086;5.240;2022-09-30T11:06:59;4.8;;;3.5;;
50651;SDS011;61429;52.086;5.240;2022-09-30T11:08:47;5.11;;;3.4;;
50651;SDS011;61429;52.086;5.240;2022-09-30T11:12:19;3.2;;;2.9;;
50651;SDS011;61429;52.086;5.240;2022-09-30T11:14:05;3.7;;;2.9;;
50651;SDS011;61429;52.086;5.240;2022-09-30T11:15:56;3.4;;;2.5;;
50651;SDS011;61429;52.086;5.240;2022-09-30T11:17:41;3.6;;;2.4;;
50651;SDS011;61429;52.086;5.240;2022-09-30T11:19:29;4.7;;;2.8;;
50651;SDS011;61429;52.086;5.240;2022-09-30T11:22:55;3.2;;;2.8;;
50651;SDS011;61429;52.086;5.240;2022-09-30T11:24:37;3.3;;;2.1;;
50651;SDS011;61429;52.086;5.240;2022-09-30T11:26:20;2.4;;;2.21;;
50651;SDS011;61429;52.086;5.240;2022-09-30T11:28:14;2.6;;;2.21;;
50651;SDS011;61429;52.086;5.240;2022-09-30T11:30:08;2.8;;;2.4;;
50651;SDS011;61429;52.086;5.240;2022-09-30T11:31:49;3.1;;;2.8;;
50651;SDS011;61429;52.086;5.240;2022-09-30T11:35:35;4.61;;;2.8;;
50651;SDS011;61429;52.086;5.240;2022-09-30T11:37:22;3.3;;;2.8;;
50651;SDS011;61429;52.086;5.240;2022-09-30T11:39:25;3.7;;;2.8;;
50651;SDS011;61429;52.086;5.240;2022-09-30T11:42:54;2.8;;;2.4;;
50651;SDS011;61429;52.086;5.240;2022-09-30T11:44:41;2.9;;;2.4;;
50651;SDS011;61429;52.086;5.240;2022-09-30T11:48:16;3.3;;;2.31;;
50651;SDS011;61429;52.086;5.240;2022-09-30T11:50:25;2.8;;;2.31;;
50651;SDS011;61429;52.086;5.240;2022-09-30T11:52:18;2.4;;;2.21;;
50651;SDS011;61429;52.086;5.240;2022-09-30T11:54:06;3.1;;;2.6;;
50651;SDS011;61429;52.086;5.240;2022-09-30T11:56:03;3.5;;;2.5;;
50651;SDS011;61429;52.086;5.240;2022-09-30T11:57:54;2.6;;;2.4;;
50651;SDS011;61429;52.086;5.240;2022-09-30T11:59:37;3.0;;;2.4;;
50651;SDS011;61429;52.086;5.240;2022-09-30T12:01:21;3.1;;;2.7;;
50651;SDS011;61429;52.086;5.240;2022-09-30T12:03:05;3.1;;;2.7;;
50651;SDS011;61429;52.086;5.240;2022-09-30T12:06:32;2.31;;;2.1;;
50651;SDS011;61429;52.086;5.240;2022-09-30T12:08:13;2.8;;;2.0;;
50651;SDS011;61429;52.086;5.240;2022-09-30T12:09:54;2.21;;;2.0;;
50651;SDS011;61429;52.086;5.240;2022-09-30T12:11:38;2.4;;;1.8;;
50651;SDS011;61429;52.086;5.240;2022-09-30T12:15:02;2.31;;;2.0;;
50651;SDS011;61429;52.086;5.240;2022-09-30T12:16:41;5.2;;;2.9;;
50651;SDS011;61429;52.086;5.240;2022-09-30T12:18:23;2.5;;;2.31;;
50651;SDS011;61429;52.086;5.240;2022-09-30T12:20:07;3.9;;;2.6;;
50651;SDS011;61429;52.086;5.240;2022-09-30T12:23:37;3.6;;;2.8;;
50651;SDS011;61429;52.086;5.240;2022-09-30T12:25:20;3.6;;;2.8;;
50651;SDS011;61429;52.086;5.240;2022-09-30T12:27:01;3.2;;;2.5;;
50651;SDS011;61429;52.086;5.240;2022-09-30T12:31:37;3.0;;;2.6;;
50651;SDS011;61429;52.086;5.240;2022-09-30T12:33:37;3.4;;;2.5;;
50651;SDS011;61429;52.086;5.240;2022-09-30T12:35:32;6.0;;;2.8;;
50651;SDS011;61429;52.086;5.240;2022-09-30T12:38:59;4.1;;;3.0;;
50651;SDS011;61429;52.086;5.240;2022-09-30T12:41:45;3.7;;;2.9;;
50651;SDS011;61429;52.086;5.240;2022-09-30T12:46:14;3.5;;;3.2;;
50651;SDS011;61429;52.086;5.240;2022-09-30T12:47:58;3.9;;;3.5;;
50651;SDS011;61429;52.086;5.240;2022-09-30T12:49:40;4.61;;;3.4;;
50651;SDS011;61429;52.086;5.240;2022-09-30T12:51:20;6.4;;;4.0;;
50651;SDS011;61429;52.086;5.240;2022-09-30T12:54:51;3.7;;;3.4;;
50651;SDS011;61429;52.086;5.240;2022-09-30T12:56:31;3.4;;;3.1;;
50651;SDS011;61429;52.086;5.240;2022-09-30T12:58:14;4.0;;;3.6;;
50651;SDS011;61429;52.086;5.240;2022-09-30T12:59:55;4.91;;;4.1;;
50651;SDS011;61429;52.086;5.240;2022-09-30T13:01:38;5.6;;;4.2;;
50651;SDS011;61429;52.086;5.240;2022-09-30T13:04:53;5.5;;;4.41;;